createdAt,value
2018-08-22T00:00:31.686Z,10.65
2018-08-22T00:01:33.913Z,15.80
2018-08-22T00:02:36.079Z,11.48
2018-08-22T00:03:38.242Z,11.08
2018-08-22T00:04:40.409Z,10.63
2018-08-22T00:05:42.620Z,13.08
2018-08-22T00:06:44.845Z,12.55
2018-08-22T00:07:47.021Z,13.00
2018-08-22T00:08:49.200Z,12.75
2018-08-22T00:09:51.362Z,13.83
2018-08-22T00:10:53.595Z,9.93
2018-08-22T00:11:55.805Z,13.08
2018-08-22T00:12:58.070Z,12.75
2018-08-22T00:14:00.238Z,10.78
2018-08-22T00:15:02.497Z,12.50
2018-08-22T00:16:04.670Z,12.88
2018-08-22T00:17:06.879Z,10.30
2018-08-22T00:18:09.058Z,11.18
2018-08-22T00:19:11.225Z,12.95
2018-08-22T00:20:13.400Z,12.80
2018-08-22T00:21:15.605Z,15.68
2018-08-22T00:22:18.662Z,14.43
2018-08-22T00:23:21.045Z,13.70
2018-08-22T00:24:23.226Z,11.53
2018-08-22T00:25:25.462Z,12.20
2018-08-22T00:26:27.638Z,13.08
2018-08-22T00:27:29.845Z,11.08
2018-08-22T00:28:32.085Z,11.28
2018-08-22T00:29:34.337Z,13.00
2018-08-22T00:30:36.514Z,9.08
2018-08-22T00:31:38.685Z,10.63
2018-08-22T00:32:40.868Z,14.00
2018-08-22T00:33:43.052Z,13.50
2018-08-22T00:34:45.221Z,10.00
2018-08-22T00:35:47.393Z,12.45
2018-08-22T00:36:49.569Z,13.18
2018-08-22T00:37:51.761Z,12.03
2018-08-22T00:38:53.933Z,13.55
2018-08-22T00:39:56.120Z,14.40
2018-08-22T00:40:58.348Z,14.63
2018-08-22T00:42:00.508Z,15.05
2018-08-22T00:43:02.696Z,17.45
2018-08-22T00:44:04.900Z,15.05
2018-08-22T00:45:07.097Z,17.23
2018-08-22T00:46:09.281Z,12.20
2018-08-22T00:47:11.466Z,12.80
2018-08-22T00:48:13.653Z,13.08
2018-08-22T00:49:15.820Z,13.70
2018-08-22T00:50:18.001Z,13.25
2018-08-22T00:51:20.177Z,11.20
2018-08-22T00:52:22.406Z,15.23
2018-08-22T00:53:24.601Z,14.63
2018-08-22T00:54:26.764Z,11.43
2018-08-22T00:55:28.956Z,11.35
2018-08-22T00:56:31.126Z,12.90
2018-08-22T00:57:33.333Z,14.43
2018-08-22T00:58:35.497Z,11.12
2018-08-22T00:59:37.790Z,12.07
2018-08-22T01:00:39.958Z,11.88
2018-08-22T01:01:42.145Z,10.90
2018-08-22T01:02:44.323Z,13.45
2018-08-22T01:03:46.506Z,12.33
2018-08-22T01:04:48.677Z,10.03
2018-08-22T01:05:50.846Z,12.43
2018-08-22T01:06:53.014Z,13.22
2018-08-22T01:07:55.193Z,11.53
2018-08-22T01:08:57.384Z,11.75
2018-08-22T01:09:59.552Z,11.73
2018-08-22T01:11:01.713Z,10.35
2018-08-22T01:12:03.897Z,13.60
2018-08-22T01:13:06.131Z,12.43
2018-08-22T01:14:08.304Z,12.65
2018-08-22T01:15:10.477Z,9.90
2018-08-22T01:16:12.673Z,12.85
2018-08-22T01:17:14.849Z,15.35
2018-08-22T01:18:17.015Z,11.75
2018-08-22T01:19:19.192Z,19.15
2018-08-22T01:20:21.361Z,13.53
2018-08-22T01:21:23.602Z,15.55
2018-08-22T01:22:25.793Z,15.48
2018-08-22T01:23:28.124Z,13.45
2018-08-22T01:24:30.321Z,13.22
2018-08-22T01:25:32.494Z,12.82
2018-08-22T01:26:34.693Z,12.53
2018-08-22T01:27:41.485Z,11.95
2018-08-22T01:28:43.692Z,14.25
2018-08-22T01:29:45.857Z,12.68
2018-08-22T01:30:48.050Z,12.75
2018-08-22T01:31:50.241Z,12.20
2018-08-22T01:32:52.398Z,13.90
2018-08-22T01:33:54.589Z,11.83
2018-08-22T01:34:56.773Z,15.80
2018-08-22T01:35:58.938Z,13.13
2018-08-22T01:37:01.104Z,11.12
2018-08-22T01:38:03.313Z,13.22
2018-08-22T01:39:06.357Z,14.15
2018-08-22T01:40:08.521Z,12.55
2018-08-22T01:41:10.687Z,13.65
2018-08-22T01:42:12.865Z,9.53
2018-08-22T01:43:15.040Z,14.73
2018-08-22T01:44:17.208Z,18.05
2018-08-22T01:45:19.393Z,13.85
2018-08-22T01:46:21.574Z,12.95
2018-08-22T01:47:23.778Z,12.37
2018-08-22T01:48:25.945Z,15.93
2018-08-22T01:49:28.102Z,12.90
2018-08-22T01:50:30.260Z,12.47
2018-08-22T01:51:32.505Z,13.00
2018-08-22T01:52:34.676Z,11.80
2018-08-22T01:53:36.895Z,16.73
2018-08-22T01:54:39.069Z,13.22
2018-08-22T01:55:41.267Z,11.45
2018-08-22T01:56:43.449Z,13.95
2018-08-22T01:57:45.653Z,14.98
2018-08-22T01:58:47.918Z,12.23
2018-08-22T01:59:50.078Z,12.35
2018-08-22T02:00:52.278Z,13.70
2018-08-22T02:01:54.494Z,12.80
2018-08-22T02:02:56.706Z,12.50
2018-08-22T02:03:58.865Z,14.03
2018-08-22T02:05:01.061Z,15.35
2018-08-22T02:06:03.247Z,13.05
2018-08-22T02:07:05.422Z,13.25
2018-08-22T02:08:07.621Z,13.43
2018-08-22T02:09:11.028Z,13.05
2018-08-22T02:10:13.191Z,12.70
2018-08-22T02:11:15.365Z,18.75
2018-08-22T02:12:17.541Z,13.70
2018-08-22T02:13:19.710Z,12.03
2018-08-22T02:14:21.886Z,15.30
2018-08-22T02:15:24.060Z,14.25
2018-08-22T02:16:26.221Z,11.30
2018-08-22T02:17:28.539Z,13.25
2018-08-22T02:18:30.706Z,12.95
2018-08-22T02:19:32.888Z,13.53
2018-08-22T02:20:35.081Z,13.45
2018-08-22T02:21:37.450Z,13.75
2018-08-22T02:22:39.662Z,11.33
2018-08-22T02:23:41.853Z,12.90
2018-08-22T02:24:44.036Z,12.40
2018-08-22T02:25:46.193Z,13.03
2018-08-22T02:26:48.380Z,17.57
2018-08-22T02:27:50.566Z,15.23
2018-08-22T02:28:52.734Z,17.52
2018-08-22T02:29:54.929Z,13.35
2018-08-22T02:30:57.117Z,15.45
2018-08-22T02:31:59.325Z,13.38
2018-08-22T02:33:01.570Z,16.48
2018-08-22T02:34:03.982Z,14.83
2018-08-22T02:35:06.205Z,16.57
2018-08-22T02:36:08.372Z,13.68
2018-08-22T02:37:10.607Z,15.13
2018-08-22T02:38:17.402Z,12.90
2018-08-22T02:39:19.585Z,16.77
2018-08-22T02:40:21.776Z,15.15
2018-08-22T02:41:23.992Z,11.88
2018-08-22T02:42:26.163Z,15.60
2018-08-22T02:43:28.329Z,14.87
2018-08-22T02:44:30.525Z,13.83
2018-08-22T02:45:32.690Z,13.72
2018-08-22T02:46:34.866Z,15.60
2018-08-22T02:47:37.037Z,12.18
2018-08-22T02:48:44.857Z,12.05
2018-08-22T02:49:47.049Z,13.08
2018-08-22T02:50:49.283Z,12.40
2018-08-22T02:51:51.470Z,13.18
2018-08-22T02:52:53.657Z,16.65
2018-08-22T02:53:55.826Z,14.98
2018-08-22T02:54:58.014Z,13.30
2018-08-22T02:56:00.222Z,12.05
2018-08-22T02:57:02.387Z,14.78
2018-08-22T02:58:04.565Z,14.25
2018-08-22T02:59:06.752Z,16.25
2018-08-22T03:00:08.934Z,13.98
2018-08-22T03:01:11.117Z,14.83
2018-08-22T03:02:13.300Z,11.97
2018-08-22T03:03:15.459Z,13.03
2018-08-22T03:04:17.633Z,17.07
2018-08-22T03:05:19.821Z,13.83
2018-08-22T03:06:22.029Z,13.75
2018-08-22T03:07:24.203Z,14.20
2018-08-22T03:08:26.387Z,12.33
2018-08-22T03:09:28.556Z,12.07
2018-08-22T03:10:30.773Z,14.03
2018-08-22T03:11:32.966Z,13.72
2018-08-22T03:12:35.141Z,14.60
2018-08-22T03:13:37.313Z,14.40
2018-08-22T03:14:39.478Z,12.28
2018-08-22T03:15:41.657Z,11.95
2018-08-22T03:16:43.832Z,13.70
2018-08-22T03:17:45.996Z,14.73
2018-08-22T03:18:48.172Z,14.30
2018-08-22T03:19:50.326Z,12.05
2018-08-22T03:20:52.537Z,14.68
2018-08-22T03:21:54.721Z,14.25
2018-08-22T03:22:56.909Z,12.35
2018-08-22T03:23:59.087Z,14.80
2018-08-22T03:25:01.278Z,12.82
2018-08-22T03:26:03.526Z,13.00
2018-08-22T03:27:05.797Z,14.70
2018-08-22T03:28:08.005Z,13.40
2018-08-22T03:29:10.174Z,12.90
2018-08-22T03:30:12.370Z,16.27
2018-08-22T03:31:14.553Z,14.45
2018-08-22T03:32:16.713Z,18.05
2018-08-22T03:33:18.897Z,16.23
2018-08-22T03:34:21.088Z,16.00
2018-08-22T03:35:23.291Z,13.88
2018-08-22T03:36:25.470Z,13.35
2018-08-22T03:37:27.635Z,16.97
2018-08-22T03:38:29.825Z,16.20
2018-08-22T03:39:32.014Z,13.25
2018-08-22T03:40:34.192Z,17.00
2018-08-22T03:41:36.365Z,14.43
2018-08-22T03:42:38.554Z,12.95
2018-08-22T03:43:40.720Z,12.30
2018-08-22T03:44:42.890Z,16.32
2018-08-22T03:45:45.093Z,14.35
2018-08-22T03:46:47.252Z,13.48
2018-08-22T03:47:49.421Z,15.15
2018-08-22T03:48:51.602Z,14.00
2018-08-22T03:49:53.787Z,12.33
2018-08-22T03:50:55.965Z,14.43
2018-08-22T03:51:58.122Z,14.55
2018-08-22T03:53:00.306Z,11.80
2018-08-22T03:54:02.549Z,14.55
2018-08-22T03:55:04.821Z,15.45
2018-08-22T03:56:07.002Z,13.25
2018-08-22T03:57:09.181Z,13.18
2018-08-22T03:58:11.414Z,16.07
2018-08-22T03:59:13.604Z,12.50
2018-08-22T04:00:15.779Z,15.53
2018-08-22T04:01:17.957Z,12.95
2018-08-22T04:02:20.143Z,14.60
2018-08-22T04:03:22.321Z,14.93
2018-08-22T04:04:24.535Z,14.58
2018-08-22T04:05:26.716Z,14.68
2018-08-22T04:06:28.885Z,12.82
2018-08-22T04:07:31.069Z,14.03
2018-08-22T04:08:33.243Z,14.43
2018-08-22T04:09:35.414Z,14.70
2018-08-22T04:10:37.610Z,17.77
2018-08-22T04:11:39.786Z,15.80
2018-08-22T04:12:41.968Z,15.93
2018-08-22T04:13:44.134Z,13.18
2018-08-22T04:14:46.317Z,14.98
2018-08-22T04:15:48.489Z,13.15
2018-08-22T04:16:50.682Z,12.58
2018-08-22T04:17:52.858Z,12.45
2018-08-22T04:18:55.049Z,15.93
2018-08-22T04:19:57.232Z,13.90
2018-08-22T04:20:59.416Z,15.72
2018-08-22T04:22:01.597Z,15.23
2018-08-22T04:23:03.907Z,12.88
2018-08-22T04:24:06.129Z,18.40
2018-08-22T04:25:08.817Z,16.80
2018-08-22T04:26:11.034Z,15.25
2018-08-22T04:27:13.230Z,13.62
2018-08-22T04:28:15.417Z,12.60
2018-08-22T04:29:17.824Z,12.95
2018-08-22T04:30:20.145Z,14.13
2018-08-22T04:31:23.185Z,13.45
2018-08-22T04:32:25.499Z,14.65
2018-08-22T04:33:27.713Z,11.53
2018-08-22T04:34:30.406Z,15.93
2018-08-22T04:35:32.978Z,16.32
2018-08-22T04:36:36.101Z,12.25
2018-08-22T04:37:38.325Z,11.38
2018-08-22T04:38:41.366Z,12.25
2018-08-22T04:39:44.293Z,13.78
2018-08-22T04:40:48.913Z,13.75
2018-08-22T04:41:55.015Z,14.68
2018-08-22T04:42:57.199Z,12.60
2018-08-22T04:44:00.278Z,12.63
2018-08-22T04:45:07.218Z,12.68
2018-08-22T04:46:09.773Z,14.40
2018-08-22T04:47:12.625Z,12.80
2018-08-22T04:48:15.235Z,12.20
2018-08-22T04:49:17.434Z,12.80
2018-08-22T04:50:19.679Z,15.10
2018-08-22T04:51:21.905Z,13.03
2018-08-22T04:52:24.134Z,14.58
2018-08-22T04:53:26.378Z,15.75
2018-08-22T04:54:28.653Z,15.60
2018-08-22T04:55:30.913Z,17.55
2018-08-22T04:56:33.246Z,12.80
2018-08-22T04:57:35.517Z,13.95
2018-08-22T04:58:37.709Z,15.58
2018-08-22T05:00:48.846Z,13.70
2018-08-22T05:01:51.050Z,16.67
2018-08-22T05:02:53.293Z,15.70
2018-08-22T05:03:55.487Z,13.20
2018-08-22T05:04:57.713Z,14.43
2018-08-22T05:05:59.959Z,13.58
2018-08-22T05:07:02.114Z,13.68
2018-08-22T05:08:04.386Z,14.98
2018-08-22T05:09:07.309Z,17.20
2018-08-22T05:10:09.546Z,15.32
2018-08-22T05:11:11.746Z,13.53
2018-08-22T05:12:13.943Z,13.50
2018-08-22T05:13:16.166Z,16.87
2018-08-22T05:14:18.478Z,17.20
2018-08-22T05:15:20.682Z,14.45
2018-08-22T05:16:22.873Z,18.15
2018-08-22T05:17:25.077Z,18.73
2018-08-22T05:18:27.257Z,16.73
2018-08-22T05:19:29.454Z,16.52
2018-08-22T05:20:31.693Z,19.37
2018-08-22T05:21:33.912Z,13.18
2018-08-22T05:22:36.113Z,15.63
2018-08-22T05:23:38.297Z,14.18
2018-08-22T05:24:40.511Z,15.90
2018-08-22T05:25:42.702Z,14.13
2018-08-22T05:26:44.909Z,14.05
2018-08-22T05:27:47.120Z,15.23
2018-08-22T05:28:49.309Z,11.08
2018-08-22T05:29:51.511Z,13.75
2018-08-22T05:30:53.702Z,15.28
2018-08-22T05:31:57.613Z,11.90
2018-08-22T05:32:59.834Z,16.62
2018-08-22T05:34:02.001Z,14.58
2018-08-22T05:35:04.455Z,15.10
2018-08-22T05:36:06.650Z,18.45
2018-08-22T05:37:08.859Z,12.18
2018-08-22T05:38:11.092Z,14.63
2018-08-22T05:39:13.751Z,15.35
2018-08-22T05:40:15.968Z,17.65
2018-08-22T05:41:18.260Z,15.45
2018-08-22T05:42:20.462Z,14.15
2018-08-22T05:43:22.673Z,17.20
2018-08-22T05:44:24.855Z,16.27
2018-08-22T05:45:27.065Z,14.35
2018-08-22T05:46:29.233Z,16.97
2018-08-22T05:47:31.445Z,13.30
2018-08-22T05:48:33.646Z,12.65
2018-08-22T05:49:35.818Z,13.78
2018-08-22T05:50:38.010Z,13.35
2018-08-22T05:51:40.241Z,14.05
2018-08-22T05:52:42.426Z,15.10
2018-08-22T05:53:44.649Z,13.43
2018-08-22T05:54:46.946Z,11.90
2018-08-22T05:55:49.211Z,14.10
2018-08-22T05:56:51.446Z,15.68
2018-08-22T05:57:53.679Z,10.95
2018-08-22T05:58:55.871Z,14.47
2018-08-22T05:59:58.036Z,15.68
2018-08-22T06:01:00.213Z,12.68
2018-08-22T06:02:02.414Z,18.00
2018-08-22T06:03:04.593Z,15.78
2018-08-22T06:04:06.771Z,13.95
2018-08-22T06:05:08.966Z,15.28
2018-08-22T06:06:11.240Z,15.48
2018-08-22T06:07:13.416Z,13.68
2018-08-22T06:08:15.605Z,13.18
2018-08-22T06:09:17.800Z,15.93
2018-08-22T06:10:20.065Z,16.23
2018-08-22T06:11:22.245Z,16.87
2018-08-22T06:12:24.538Z,14.15
2018-08-22T06:13:26.723Z,14.83
2018-08-22T06:14:28.913Z,15.90
2018-08-22T06:15:31.116Z,16.05
2018-08-22T06:16:33.282Z,16.60
2018-08-22T06:17:35.513Z,13.62
2018-08-22T06:18:37.741Z,14.73
2018-08-22T06:19:39.912Z,14.58
2018-08-22T06:20:42.107Z,12.65
2018-08-22T06:21:44.262Z,16.02
2018-08-22T06:22:46.432Z,16.45
2018-08-22T06:23:48.617Z,14.80
2018-08-22T06:24:50.779Z,19.23
2018-08-22T06:25:52.973Z,17.80
2018-08-22T06:26:55.142Z,18.42
2018-08-22T06:27:57.375Z,19.12
2018-08-22T06:28:59.553Z,16.65
2018-08-22T06:30:01.734Z,16.50
2018-08-22T06:31:04.005Z,18.98
2018-08-22T06:32:06.166Z,16.15
2018-08-22T06:33:08.399Z,19.02
2018-08-22T06:34:10.573Z,15.72
2018-08-22T06:35:12.749Z,19.67
2018-08-22T06:36:14.938Z,20.45
2018-08-22T06:37:17.733Z,17.57
2018-08-22T06:38:19.887Z,21.48
2018-08-22T06:39:22.067Z,19.37
2018-08-22T06:40:24.240Z,21.55
2018-08-22T06:41:26.411Z,22.95
2018-08-22T06:42:28.569Z,24.30
2018-08-22T06:43:30.736Z,23.10
2018-08-22T06:44:33.002Z,23.98
2018-08-22T06:45:35.178Z,24.43
2018-08-22T06:46:37.347Z,22.00
2018-08-22T06:47:39.505Z,24.32
2018-08-22T06:48:41.690Z,20.92
2018-08-22T06:49:43.901Z,20.23
2018-08-22T06:50:46.089Z,20.10
2018-08-22T06:51:48.242Z,25.70
2018-08-22T06:52:50.450Z,23.50
2018-08-22T06:53:52.633Z,23.87
2018-08-22T06:54:54.837Z,23.15
2018-08-22T06:55:57.026Z,20.12
2018-08-22T06:56:59.220Z,25.85
2018-08-22T06:58:01.385Z,26.12
2018-08-22T06:59:03.589Z,25.60
2018-08-22T07:00:06.020Z,25.27
2018-08-22T07:01:08.222Z,27.00
2018-08-22T07:02:10.401Z,28.45
2018-08-22T07:03:12.578Z,27.55
2018-08-22T07:04:14.857Z,26.35
2018-08-22T07:05:17.049Z,25.25
2018-08-22T07:06:19.196Z,26.00
2018-08-22T07:07:21.357Z,24.60
2018-08-22T07:08:23.533Z,25.17
2018-08-22T07:09:25.705Z,24.23
2018-08-22T07:10:27.898Z,29.02
2018-08-22T07:11:30.062Z,25.32
2018-08-22T07:12:32.279Z,23.85
2018-08-22T07:13:34.433Z,24.30
2018-08-22T07:14:36.673Z,23.30
2018-08-22T07:15:38.878Z,22.75
2018-08-22T07:16:41.050Z,23.25
2018-08-22T07:17:43.228Z,21.95
2018-08-22T07:18:45.395Z,19.05
2018-08-22T07:19:47.581Z,17.32
2018-08-22T07:20:49.796Z,19.02
2018-08-22T07:21:51.945Z,22.65
2018-08-22T07:22:54.108Z,20.48
2018-08-22T07:23:56.269Z,23.83
2018-08-22T07:24:58.468Z,22.02
2018-08-22T07:26:00.638Z,18.35
2018-08-22T07:27:02.805Z,17.65
2018-08-22T07:28:05.502Z,18.23
2018-08-22T07:29:07.668Z,21.80
2018-08-22T07:30:09.908Z,21.23
2018-08-22T07:31:12.153Z,18.30
2018-08-22T07:32:14.333Z,21.52
2018-08-22T07:33:16.492Z,19.17
2018-08-22T07:34:18.734Z,20.08
2018-08-22T07:35:20.893Z,20.25
2018-08-22T07:36:23.101Z,19.98
2018-08-22T07:37:25.306Z,18.37
2018-08-22T07:38:27.477Z,19.02
2018-08-22T07:39:29.680Z,16.80
2018-08-22T07:40:31.899Z,18.15
2018-08-22T07:41:34.061Z,16.82
2018-08-22T07:42:36.220Z,17.17
2018-08-22T07:43:38.401Z,17.17
2018-08-22T07:44:40.594Z,15.63
2018-08-22T07:45:42.933Z,17.15
2018-08-22T07:46:45.130Z,17.05
2018-08-22T07:47:47.313Z,14.30
2018-08-22T07:48:50.129Z,16.97
2018-08-22T07:49:52.318Z,15.85
2018-08-22T07:50:54.521Z,15.40
2018-08-22T07:51:56.685Z,19.15
2018-08-22T07:53:03.610Z,14.60
2018-08-22T07:54:05.773Z,15.68
2018-08-22T07:55:07.962Z,12.53
2018-08-22T07:56:10.158Z,16.57
2018-08-22T07:57:13.788Z,15.55
2018-08-22T07:58:16.021Z,16.82
2018-08-22T07:59:20.137Z,13.43
2018-08-22T08:00:22.393Z,14.45
2018-08-22T08:01:24.597Z,14.40
2018-08-22T08:02:26.761Z,18.00
2018-08-22T08:03:28.942Z,14.75
2018-08-22T08:04:31.117Z,15.28
2018-08-22T08:05:33.403Z,13.45
2018-08-22T08:06:35.821Z,13.48
2018-08-22T08:07:38.117Z,13.43
2018-08-22T08:08:40.583Z,15.65
2018-08-22T08:09:42.832Z,13.00
2018-08-22T08:10:45.112Z,14.40
2018-08-22T08:11:47.520Z,16.25
2018-08-22T08:12:49.847Z,15.50
2018-08-22T08:13:52.086Z,17.92
2018-08-22T08:15:00.030Z,13.85
2018-08-22T08:16:02.417Z,13.70
2018-08-22T08:17:04.802Z,14.75
2018-08-22T08:18:07.070Z,12.70
2018-08-22T08:19:09.320Z,9.60
2018-08-22T08:20:11.697Z,12.25
2018-08-22T08:21:14.006Z,11.25
2018-08-22T08:22:16.566Z,14.23
2018-08-22T08:23:18.965Z,12.05
2018-08-22T08:24:21.379Z,12.95
2018-08-22T08:25:23.682Z,11.55
2018-08-22T08:26:26.035Z,11.55
2018-08-22T08:27:28.329Z,13.48
2018-08-22T08:28:31.105Z,11.08
2018-08-22T08:29:33.373Z,13.32
2018-08-22T08:30:35.685Z,12.80
2018-08-22T08:31:37.918Z,14.33
2018-08-22T08:32:40.239Z,10.90
2018-08-22T08:33:42.445Z,12.82
2018-08-22T08:34:44.656Z,10.58
2018-08-22T08:35:46.985Z,12.45
2018-08-22T08:36:49.200Z,14.43
2018-08-22T08:37:51.413Z,14.25
2018-08-22T08:38:53.582Z,15.40
2018-08-22T08:39:55.758Z,14.28
2018-08-22T08:40:57.965Z,14.25
2018-08-22T08:42:00.186Z,13.00
2018-08-22T08:43:02.363Z,11.97
2018-08-22T08:44:04.570Z,13.10
2018-08-22T08:45:07.975Z,14.58
2018-08-22T08:46:10.298Z,12.03
2018-08-22T08:47:12.480Z,11.08
2018-08-22T08:48:14.657Z,13.00
2018-08-22T08:49:17.027Z,11.88
2018-08-22T08:50:19.185Z,12.82
2018-08-22T08:51:21.435Z,13.85
2018-08-22T08:52:23.622Z,11.68
2018-08-22T08:53:25.793Z,12.37
2018-08-22T08:54:28.513Z,12.55
2018-08-22T08:55:30.696Z,14.00
2018-08-22T08:56:32.910Z,14.90
2018-08-22T08:57:35.086Z,11.45
2018-08-22T08:58:37.282Z,11.85
2018-08-22T08:59:39.476Z,12.25
2018-08-22T09:00:41.652Z,14.03
2018-08-22T09:01:43.854Z,11.05
2018-08-22T09:02:46.053Z,13.72
2018-08-22T09:03:48.352Z,11.30
2018-08-22T09:04:50.497Z,10.98
2018-08-22T09:05:52.675Z,12.65
2018-08-22T09:06:54.854Z,12.25
2018-08-22T09:07:57.020Z,12.10
2018-08-22T09:08:59.211Z,13.90
2018-08-22T09:10:01.398Z,13.62
2018-08-22T09:11:03.676Z,12.78
2018-08-22T09:12:07.163Z,13.10
2018-08-22T09:13:10.633Z,13.78
2018-08-22T09:14:12.805Z,12.05
2018-08-22T09:15:15.056Z,12.23
2018-08-22T09:16:17.230Z,12.70
2018-08-22T09:17:19.477Z,15.32
2018-08-22T09:18:21.629Z,13.00
2018-08-22T09:19:23.811Z,10.15
2018-08-22T09:20:26.049Z,12.85
2018-08-22T09:21:28.286Z,14.83
2018-08-22T09:22:30.485Z,11.18
2018-08-22T09:23:32.698Z,13.78
2018-08-22T09:24:34.937Z,13.35
2018-08-22T09:25:37.107Z,13.62
2018-08-22T09:26:39.294Z,12.45
2018-08-22T09:27:41.501Z,13.18
2018-08-22T09:28:43.685Z,14.47
2018-08-22T09:29:45.869Z,11.30
2018-08-22T09:30:48.037Z,10.70
2018-08-22T09:31:50.229Z,15.08
2018-08-22T09:32:52.409Z,12.95
2018-08-22T09:33:54.600Z,14.33
2018-08-22T09:34:56.791Z,13.75
2018-08-22T09:35:58.981Z,10.82
2018-08-22T09:37:01.148Z,13.70
2018-08-22T09:38:03.521Z,12.18
2018-08-22T09:39:08.534Z,11.60
2018-08-22T09:40:10.727Z,13.90
2018-08-22T09:41:12.933Z,13.38
2018-08-22T09:42:15.131Z,11.35
2018-08-22T09:43:17.346Z,13.90
2018-08-22T09:44:19.567Z,15.23
2018-08-22T09:45:21.729Z,12.28
2018-08-22T09:46:23.930Z,13.05
2018-08-22T09:47:26.126Z,13.10
2018-08-22T09:48:28.297Z,14.25
2018-08-22T09:49:30.461Z,11.55
2018-08-22T09:50:32.676Z,12.03
2018-08-22T09:51:34.913Z,15.78
2018-08-22T09:52:37.114Z,13.28
2018-08-22T09:53:39.289Z,12.98
2018-08-22T09:54:54.853Z,17.23
2018-08-22T09:55:57.047Z,14.80
2018-08-22T09:56:59.254Z,13.70
2018-08-22T09:58:01.479Z,13.70
2018-08-22T09:59:03.661Z,12.37
2018-08-22T10:00:10.838Z,11.28
2018-08-22T10:01:18.686Z,12.43
2018-08-22T10:02:20.872Z,12.93
2018-08-22T10:03:23.036Z,11.00
2018-08-22T10:04:25.198Z,13.30
2018-08-22T10:05:27.353Z,13.43
2018-08-22T10:06:35.007Z,15.00
2018-08-22T10:07:37.047Z,14.50
2018-08-22T10:08:39.540Z,13.05
2018-08-22T10:09:41.726Z,12.75
2018-08-22T10:10:43.860Z,13.10
2018-08-22T10:11:46.066Z,14.70
2018-08-22T10:12:48.223Z,14.03
2018-08-22T10:13:50.393Z,16.55
2018-08-22T10:14:59.406Z,11.43
2018-08-22T10:16:02.159Z,13.15
2018-08-22T10:17:04.433Z,13.20
2018-08-22T10:18:06.642Z,10.18
2018-08-22T10:19:08.887Z,10.82
2018-08-22T10:20:11.041Z,13.95
2018-08-22T10:21:13.221Z,14.95
2018-08-22T10:22:15.393Z,12.00
2018-08-22T10:23:17.565Z,11.05
2018-08-22T10:24:19.731Z,13.05
2018-08-22T10:25:21.877Z,12.18
2018-08-22T10:26:24.230Z,11.48
2018-08-22T10:27:26.379Z,12.53
2018-08-22T10:28:28.591Z,13.70
2018-08-22T10:29:30.742Z,11.18
2018-08-22T10:30:32.907Z,12.13
2018-08-22T10:31:35.046Z,13.18
2018-08-22T10:32:37.197Z,10.63
2018-08-22T10:33:39.439Z,10.03
2018-08-22T10:34:41.610Z,13.93
2018-08-22T10:35:43.782Z,14.30
2018-08-22T10:36:45.940Z,11.20
2018-08-22T10:37:48.086Z,12.95
2018-08-22T10:38:50.272Z,14.98
2018-08-22T10:39:52.410Z,11.35
2018-08-22T10:40:54.622Z,16.85
2018-08-22T10:41:56.782Z,11.40
2018-08-22T10:42:58.913Z,15.00
2018-08-22T10:44:01.059Z,11.80
2018-08-22T10:45:03.262Z,11.75
2018-08-22T10:46:05.652Z,13.03
2018-08-22T10:47:07.821Z,11.40
2018-08-22T10:48:09.987Z,13.58
2018-08-22T10:49:12.157Z,13.98
2018-08-22T10:50:14.341Z,12.33
2018-08-22T10:51:16.529Z,12.45
2018-08-22T10:52:18.685Z,12.98
2018-08-22T10:53:20.842Z,12.25
2018-08-22T10:54:22.989Z,13.62
2018-08-22T10:55:25.141Z,13.98
2018-08-22T10:56:27.317Z,13.05
2018-08-22T10:57:29.509Z,14.63
2018-08-22T10:58:31.781Z,13.70
2018-08-22T10:59:33.922Z,11.78
2018-08-22T11:00:36.095Z,12.10
2018-08-22T11:01:38.249Z,11.93
2018-08-22T11:02:40.393Z,17.55
2018-08-22T11:03:42.555Z,15.20
2018-08-22T11:04:44.696Z,13.53
2018-08-22T11:05:46.849Z,14.55
2018-08-22T11:06:48.985Z,11.90
2018-08-22T11:07:51.319Z,14.60
2018-08-22T11:08:53.474Z,15.85
2018-08-22T11:09:55.614Z,12.37
2018-08-22T11:10:57.769Z,12.37
2018-08-22T11:11:59.906Z,14.30
2018-08-22T11:13:02.073Z,11.57
2018-08-22T11:14:04.229Z,11.22
2018-08-22T11:15:06.411Z,15.18
2018-08-22T11:16:08.664Z,13.48
2018-08-22T11:17:10.776Z,11.20
2018-08-22T11:18:12.994Z,12.93
2018-08-22T11:19:15.141Z,13.08
2018-08-22T11:20:17.317Z,11.50
2018-08-22T11:21:30.912Z,14.75
2018-08-22T11:22:44.529Z,13.18
2018-08-22T11:23:58.202Z,9.35
2018-08-22T11:25:11.877Z,13.80
2018-08-22T11:26:25.765Z,12.55
2018-08-22T11:27:39.387Z,13.80
2018-08-22T11:28:52.969Z,13.85
2018-08-22T11:30:06.801Z,13.50
2018-08-22T11:31:20.483Z,13.43
2018-08-22T11:32:34.004Z,14.23
2018-08-22T11:33:47.533Z,13.10
2018-08-22T11:34:50.353Z,11.63
2018-08-22T11:35:51.628Z,14.45
2018-08-22T11:37:04.240Z,11.55
2018-08-22T11:38:06.460Z,11.83
2018-08-22T11:39:08.681Z,11.33
2018-08-22T11:40:10.861Z,9.73
2018-08-22T11:41:13.037Z,15.30
2018-08-22T11:42:15.717Z,10.88
2018-08-22T11:43:18.222Z,33.18
2018-08-22T11:44:20.858Z,33.45
2018-08-22T11:45:30.306Z,33.92
2018-08-22T11:46:32.944Z,34.10
2018-08-22T11:47:35.961Z,35.30
2018-08-22T11:48:38.586Z,31.68
2018-08-22T11:49:41.657Z,33.92
2018-08-22T11:51:52.822Z,12.70
2018-08-22T11:52:54.960Z,12.33
2018-08-22T11:53:57.189Z,15.15
2018-08-22T11:54:59.337Z,10.68
2018-08-22T11:56:01.482Z,11.78
2018-08-22T11:57:03.689Z,14.35
2018-08-22T11:58:05.913Z,13.32
2018-08-22T11:59:08.062Z,12.80
2018-08-22T12:00:10.245Z,13.03
2018-08-22T12:01:13.311Z,13.08
2018-08-22T12:02:15.462Z,13.32
2018-08-22T12:03:17.622Z,13.00
2018-08-22T12:04:20.206Z,13.62
2018-08-22T12:05:22.355Z,11.33
2018-08-22T12:06:24.513Z,13.95
2018-08-22T12:07:26.671Z,13.88
2018-08-22T12:08:28.996Z,13.85
2018-08-22T12:09:31.165Z,10.55
2018-08-22T12:10:33.433Z,16.00
2018-08-22T12:11:35.561Z,13.28
2018-08-22T12:12:37.725Z,13.28
2018-08-22T12:13:40.177Z,12.20
2018-08-22T12:14:42.339Z,11.00
2018-08-22T12:15:44.573Z,10.58
2018-08-22T12:16:46.736Z,13.28
2018-08-22T12:17:48.911Z,10.78
2018-08-22T12:18:51.079Z,10.93
2018-08-22T12:21:02.210Z,11.00
2018-08-22T12:22:04.377Z,11.15
2018-08-22T12:23:06.552Z,13.20
2018-08-22T12:24:08.686Z,12.23
2018-08-22T12:25:10.898Z,11.68
2018-08-22T12:26:13.057Z,11.55
2018-08-22T12:27:15.296Z,13.10
2018-08-22T12:28:17.473Z,13.48
2018-08-22T12:29:19.928Z,13.08
2018-08-22T12:30:22.070Z,12.60
2018-08-22T12:31:24.246Z,13.78
2018-08-22T12:32:26.784Z,12.15
2018-08-22T12:33:29.247Z,11.40
2018-08-22T12:34:31.411Z,13.05
2018-08-22T12:35:33.778Z,13.30
2018-08-22T12:36:37.480Z,15.15
2018-08-22T12:37:39.661Z,12.25
2018-08-22T12:38:42.314Z,10.45
2018-08-22T12:39:44.503Z,11.95
2018-08-22T12:40:48.082Z,13.65
2018-08-22T12:41:50.237Z,12.60
2018-08-22T12:42:52.397Z,15.05
2018-08-22T12:43:54.926Z,10.90
2018-08-22T12:44:57.663Z,21.02
2018-08-22T12:46:00.208Z,25.02
2018-08-22T12:47:02.514Z,23.50
2018-08-22T12:48:04.890Z,24.55
2018-08-22T12:49:07.227Z,23.10
2018-08-22T12:50:10.227Z,22.22
2018-08-22T12:51:13.703Z,23.75
2018-08-22T12:52:16.127Z,20.02
2018-08-22T12:53:18.358Z,22.93
2018-08-22T12:54:20.654Z,22.93
2018-08-22T12:55:22.833Z,23.12
2018-08-22T12:56:25.541Z,22.65
2018-08-22T12:57:28.346Z,22.02
2018-08-22T12:58:30.673Z,20.72
2018-08-22T12:59:32.905Z,22.13
2018-08-22T13:00:35.355Z,19.35
2018-08-22T13:01:37.607Z,20.52
2018-08-22T13:02:40.654Z,21.33
2018-08-22T13:03:42.957Z,23.05
2018-08-22T13:04:45.287Z,20.70
2018-08-22T13:05:48.769Z,11.57
2018-08-22T13:06:50.936Z,11.35
2018-08-22T13:07:53.081Z,11.10
2018-08-22T13:08:55.250Z,13.13
2018-08-22T13:09:57.416Z,10.63
2018-08-22T13:10:59.585Z,11.25
2018-08-22T13:12:02.103Z,10.68
2018-08-22T13:13:04.297Z,10.10
2018-08-22T13:14:06.462Z,9.28
2018-08-22T13:15:09.283Z,13.40
2018-08-22T13:16:11.471Z,11.40
2018-08-22T13:17:13.960Z,11.05
2018-08-22T13:18:16.130Z,12.37
2018-08-22T13:19:18.286Z,10.23
2018-08-22T13:20:20.429Z,11.88
2018-08-22T13:21:22.633Z,12.95
2018-08-22T13:22:24.811Z,12.00
2018-08-22T13:23:26.969Z,11.78
2018-08-22T13:24:29.121Z,10.63
2018-08-22T13:25:31.273Z,8.60
2018-08-22T13:26:33.443Z,11.55
2018-08-22T13:27:35.597Z,10.15
2018-08-22T13:28:37.785Z,11.22